N124MC KFFA-KMQI
Flight info
| Callsign | N124MC |
|---|---|
| Flight time | 0h -5m |
| Altitude | 1500 |
| Route | VFR |
| Aircraft | BE24/L-VGD/C |
Departure
| Time | 2026-04-25 21:25 |
|---|---|
| Airport | First Flight Airport (KFFA) |
Arrival
| Time | 2026-04-25 21:19 |
|---|---|
| Airport | Dare County Regional Airport (KMQI) |
| Time | Latitude | Longitude | Altitude | Speed | Heading |
|---|---|---|---|---|---|
| 2026-04-25 21:19 | 36.01410 | -75.67170 | 18 ft | 0 kts | 14° |
| 2026-04-25 21:23 | 36.01399 | -75.67204 | 18 ft | 7 kts | 242° |
| 2026-04-25 21:23 | 36.01367 | -75.67261 | 17 ft | 15 kts | 272° |
| 2026-04-25 21:23 | 36.01388 | -75.67283 | 16 ft | 6 kts | 17° |
| 2026-04-25 21:24 | 36.01646 | -75.67200 | 16 ft | 67 kts | 20° |
| 2026-04-25 21:24 | 36.02163 | -75.67061 | 136 ft | 78 kts | 5° |
| 2026-04-25 21:24 | 36.02732 | -75.67096 | 249 ft | 83 kts | 22° |
| 2026-04-25 21:24 | 36.03276 | -75.66845 | 427 ft | 81 kts | 51° |
| 2026-04-25 21:25 | 36.03235 | -75.66333 | 641 ft | 68 kts | 147° |
| 2026-04-25 21:25 | 36.02759 | -75.66197 | 900 ft | 75 kts | 169° |
| 2026-04-25 21:25 | 36.02161 | -75.66326 | 1017 ft | 107 kts | 192° |
| 2026-04-25 21:25 | 36.01346 | -75.66531 | 1018 ft | 129 kts | 191° |
| 2026-04-25 21:26 | 36.00419 | -75.66769 | 1012 ft | 140 kts | 193° |
| 2026-04-25 21:26 | 35.99489 | -75.67090 | 1001 ft | 130 kts | 194° |
| 2026-04-25 21:26 | 35.98664 | -75.67367 | 996 ft | 114 kts | 195° |
| 2026-04-25 21:26 | 35.97946 | -75.67601 | 988 ft | 99 kts | 193° |
| 2026-04-25 21:27 | 35.97310 | -75.67807 | 990 ft | 91 kts | 196° |
| 2026-04-25 21:27 | 35.96761 | -75.67997 | 977 ft | 76 kts | 195° |
| 2026-04-25 21:27 | 35.96256 | -75.68193 | 1039 ft | 78 kts | 196° |
| 2026-04-25 21:27 | 35.95710 | -75.68413 | 1034 ft | 86 kts | 195° |
| 2026-04-25 21:28 | 35.95141 | -75.68649 | 1014 ft | 86 kts | 198° |
| 2026-04-25 21:28 | 35.94586 | -75.68913 | 968 ft | 84 kts | 199° |
| 2026-04-25 21:28 | 35.94073 | -75.69208 | 901 ft | 78 kts | 206° |
| 2026-04-25 21:28 | 35.93599 | -75.69579 | 885 ft | 85 kts | 210° |
| 2026-04-25 21:29 | 35.93108 | -75.70039 | 862 ft | 91 kts | 219° |
| 2026-04-25 21:29 | 35.92713 | -75.70592 | 930 ft | 84 kts | 222° |
| 2026-04-25 21:29 | 35.92311 | -75.71118 | 924 ft | 83 kts | 220° |
| 2026-04-25 21:29 | 35.91904 | -75.71597 | 789 ft | 82 kts | 203° |
| 2026-04-25 21:30 | 35.91360 | -75.71585 | 494 ft | 80 kts | 144° |
| 2026-04-25 21:30 | 35.91027 | -75.71085 | 318 ft | 73 kts | 125° |
| 2026-04-25 21:30 | 35.91110 | -75.70497 | 198 ft | 77 kts | 68° |
| 2026-04-25 21:30 | 35.91335 | -75.70142 | 66 ft | 78 kts | 40° |
| 2026-04-25 21:31 | 35.91746 | -75.69741 | 16 ft | 24 kts | 40° |
| 2026-04-25 21:31 | 35.91813 | -75.69668 | 17 ft | 19 kts | 43° |
| 2026-04-25 21:31 | 35.91892 | -75.69517 | 16 ft | 20 kts | 97° |
| 2026-04-25 21:31 | 35.91873 | -75.69374 | 16 ft | 15 kts | 104° |
| 2026-04-25 21:32 | 35.91862 | -75.69281 | 15 ft | 8 kts | 94° |
| 2026-04-25 21:32 | 35.91882 | -75.69233 | 15 ft | 0 kts | 14° |